createdAt,value
2022-11-17T00:01:42.358Z,98119.13
2022-11-17T00:04:10.854Z,98112.75
2022-11-17T00:06:39.292Z,98100.28
2022-11-17T00:09:17.417Z,98101.38
2022-11-17T00:12:04.089Z,98088.09
2022-11-17T00:14:36.786Z,98089.16
2022-11-17T00:17:08.848Z,98083.84
2022-11-17T00:19:54.734Z,98082.03
2022-11-17T00:22:23.827Z,98077.78
2022-11-17T00:24:52.720Z,98071.41
2022-11-17T00:27:21.067Z,98067.69
2022-11-17T00:29:49.494Z,98066.91
2022-11-17T00:32:37.756Z,98058.16
2022-11-17T00:35:07.198Z,98057.09
2022-11-17T00:37:38.646Z,98052.56
2022-11-17T00:40:08.544Z,98043.03
2022-11-17T00:42:37.010Z,98038.22
2022-11-17T00:45:06.322Z,98033.72
2022-11-17T00:47:38.738Z,98024.97
2022-11-17T00:50:08.492Z,98034.78
2022-11-17T00:52:37.001Z,98024.19
2022-11-17T00:55:06.603Z,98021.28
2022-11-17T00:57:35.025Z,98015.16
2022-11-17T01:00:03.806Z,98004.28
2022-11-17T01:02:32.385Z,98012.25
2022-11-17T01:05:02.308Z,98013.31
2022-11-17T01:07:30.894Z,98015.69
2022-11-17T01:09:59.370Z,98024.16
2022-11-17T01:12:27.908Z,98023.84
2022-11-17T01:14:56.409Z,98010.59
2022-11-17T01:17:24.917Z,98006.09
2022-11-17T01:19:53.383Z,98002.13
2022-11-17T01:22:23.229Z,97998.19
2022-11-17T01:24:51.633Z,97993.94
2022-11-17T01:27:20.056Z,97995.81
2022-11-17T01:29:48.909Z,97983.94
2022-11-17T01:32:17.288Z,97966.16
2022-11-17T01:34:45.687Z,97948.66
2022-11-17T01:37:23.107Z,97964.84
2022-11-17T01:39:53.036Z,97946.38
2022-11-17T01:42:24.451Z,97935.25
2022-11-17T01:45:02.400Z,97941.34
2022-11-17T01:47:41.149Z,97934.72
2022-11-17T01:50:21.577Z,97935.00
2022-11-17T01:52:52.086Z,97919.88
2022-11-17T01:55:24.369Z,97923.09
2022-11-17T01:57:57.944Z,97910.59
2022-11-17T02:00:26.492Z,97903.44
2022-11-17T02:02:55.163Z,97905.81
2022-11-17T02:05:39.021Z,97899.22
2022-11-17T02:08:08.613Z,97889.13
2022-11-17T02:10:39.225Z,97895.50
2022-11-17T02:13:08.766Z,97901.31
2022-11-17T02:15:37.365Z,97877.47
2022-11-17T02:18:06.388Z,97877.94
2022-11-17T02:21:02.854Z,97877.94
2022-11-17T02:24:14.113Z,97874.81
2022-11-17T02:27:32.168Z,97871.63
2022-11-17T02:30:05.986Z,97861.03
2022-11-17T02:32:47.717Z,97852.81
2022-11-17T02:35:26.419Z,97842.22
2022-11-17T02:38:08.112Z,97848.78
2022-11-17T02:40:43.329Z,97839.75
2022-11-17T02:43:35.454Z,97828.09
2022-11-17T02:46:09.011Z,97822.00
2022-11-17T02:48:41.195Z,97804.50
2022-11-17T02:51:17.441Z,97804.47
2022-11-17T02:53:46.107Z,97815.84
2022-11-17T02:56:14.508Z,97805.25
2022-11-17T02:58:44.260Z,97804.16
2022-11-17T03:02:01.973Z,97799.72
2022-11-17T03:04:48.074Z,97797.34
2022-11-17T03:07:36.807Z,97802.63
2022-11-17T03:10:16.487Z,97805.88
2022-11-17T03:12:54.005Z,97797.34
2022-11-17T03:15:37.825Z,97807.38
2022-11-17T03:18:14.873Z,97798.38
2022-11-17T03:20:51.447Z,97798.84
2022-11-17T03:23:24.599Z,97793.56
2022-11-17T03:25:58.040Z,97804.66
2022-11-17T03:28:30.913Z,97791.13
2022-11-17T03:31:02.557Z,97784.47
2022-11-17T03:33:31.931Z,97772.56
2022-11-17T03:36:06.748Z,97768.75
2022-11-17T03:38:40.111Z,97768.75
2022-11-17T03:41:12.388Z,97768.47
2022-11-17T03:43:44.410Z,97791.53
2022-11-17T03:46:17.848Z,97803.13
2022-11-17T03:48:53.082Z,97784.31
2022-11-17T03:51:24.980Z,97784.31
2022-11-17T03:53:54.947Z,97789.53
2022-11-17T03:56:35.877Z,97794.03
2022-11-17T03:59:14.218Z,97786.09
2022-11-17T04:01:44.136Z,97807.31
2022-11-17T04:04:16.583Z,97792.97
2022-11-17T04:06:45.100Z,97800.03
2022-11-17T04:09:13.721Z,97792.91
2022-11-17T04:11:59.535Z,97793.09
2022-11-17T04:14:45.332Z,97784.63
2022-11-17T04:17:15.252Z,97784.13
2022-11-17T04:19:43.685Z,97791.03
2022-11-17T04:22:12.101Z,97787.28
2022-11-17T04:24:40.559Z,97791.50
2022-11-17T04:27:27.102Z,97791.81
2022-11-17T04:29:55.520Z,97780.91
2022-11-17T04:32:25.325Z,97779.03
2022-11-17T04:34:53.707Z,97787.50
2022-11-17T04:37:22.773Z,97793.09
2022-11-17T04:39:51.179Z,97790.16
2022-11-17T04:42:18.556Z,97802.63
2022-11-17T04:44:46.947Z,97810.00
2022-11-17T04:47:16.123Z,97791.44
2022-11-17T04:49:45.912Z,97787.19
2022-11-17T04:52:14.296Z,97795.66
2022-11-17T04:54:42.749Z,97788.50
2022-11-17T04:57:11.233Z,97784.75
2022-11-17T04:59:39.680Z,97779.75
2022-11-17T05:02:08.205Z,97771.00
2022-11-17T05:04:54.200Z,97767.56
2022-11-17T05:07:24.232Z,97769.72
2022-11-17T05:09:52.661Z,97768.16
2022-11-17T05:12:37.717Z,97768.94
2022-11-17T05:15:07.504Z,97755.97
2022-11-17T05:17:34.837Z,97758.13
2022-11-17T05:20:03.247Z,97761.84
2022-11-17T05:22:50.347Z,97757.91
2022-11-17T05:25:18.972Z,97751.63
2022-11-17T05:27:47.415Z,97763.00
2022-11-17T05:30:16.749Z,97759.56
2022-11-17T05:32:45.196Z,97772.03
2022-11-17T05:35:13.668Z,97744.22
2022-11-17T05:37:43.439Z,97749.84
2022-11-17T05:40:12.704Z,97758.84
2022-11-17T05:42:41.122Z,97753.53
2022-11-17T05:45:11.159Z,97758.06
2022-11-17T05:47:40.385Z,97754.16
2022-11-17T05:50:09.488Z,97760.59
2022-11-17T05:52:37.877Z,97758.44
2022-11-17T05:55:09.073Z,97760.03
2022-11-17T05:57:37.667Z,97757.38
2022-11-17T06:00:08.885Z,97754.72
2022-11-17T06:02:48.229Z,97748.63
2022-11-17T06:05:20.234Z,97746.78
2022-11-17T06:07:49.633Z,97743.34
2022-11-17T06:10:19.571Z,97736.16
2022-11-17T06:12:48.143Z,97733.78
2022-11-17T06:15:16.645Z,97721.91
2022-11-17T06:17:50.067Z,97741.25
2022-11-17T06:20:26.087Z,97747.34
2022-11-17T06:22:54.675Z,97743.34
2022-11-17T06:25:25.200Z,97744.13
2022-11-17T06:27:54.510Z,97748.44
2022-11-17T06:30:22.970Z,97751.00
2022-11-17T06:32:51.942Z,97761.28
2022-11-17T06:35:20.703Z,97754.72
2022-11-17T06:37:51.667Z,97767.09
2022-11-17T06:40:20.148Z,97764.16
2022-11-17T06:43:08.394Z,97768.66
2022-11-17T06:45:38.130Z,97768.66
2022-11-17T06:48:08.127Z,97770.28
2022-11-17T06:50:38.585Z,97777.91
2022-11-17T06:53:10.093Z,97777.34
2022-11-17T06:55:38.915Z,97764.38
2022-11-17T06:58:11.651Z,97768.31
2022-11-17T07:00:40.412Z,97775.19
2022-11-17T07:03:11.584Z,97774.34
2022-11-17T07:05:40.635Z,97776.69
2022-11-17T07:08:10.735Z,97782.00
2022-11-17T07:10:41.651Z,97767.63
2022-11-17T07:13:17.129Z,97772.69
2022-11-17T07:15:45.531Z,97775.03
2022-11-17T07:18:16.801Z,97760.19
2022-11-17T07:20:45.210Z,97765.72
2022-11-17T07:23:14.005Z,97768.84
2022-11-17T07:25:42.624Z,97775.44
2022-11-17T07:28:11.090Z,97766.91
2022-11-17T07:30:40.929Z,97767.13
2022-11-17T07:33:09.356Z,97771.06
2022-11-17T07:35:38.218Z,97774.97
2022-11-17T07:38:06.668Z,97772.63
2022-11-17T07:40:35.066Z,97780.22
2022-11-17T07:43:03.507Z,97779.34
2022-11-17T07:45:32.461Z,97778.25
2022-11-17T07:48:04.407Z,97773.16
2022-11-17T07:50:33.345Z,97770.69
2022-11-17T07:53:01.985Z,97771.69
2022-11-17T07:55:30.518Z,97769.03
2022-11-17T07:58:00.684Z,97761.56
2022-11-17T08:00:33.592Z,97769.22
2022-11-17T08:03:04.695Z,97765.31
2022-11-17T08:05:37.080Z,97768.06
2022-11-17T08:08:09.410Z,97777.31
2022-11-17T08:10:37.946Z,97776.75
2022-11-17T08:13:06.365Z,97780.38
2022-11-17T08:15:34.961Z,97765.75
2022-11-17T08:18:05.053Z,97763.38
2022-11-17T08:20:33.880Z,97780.03
2022-11-17T08:23:02.314Z,97786.59
2022-11-17T08:25:30.732Z,97781.28
2022-11-17T08:27:59.953Z,97777.56
2022-11-17T08:30:28.657Z,97782.56
2022-11-17T08:32:57.077Z,97790.25
2022-11-17T08:35:27.271Z,97783.88
2022-11-17T08:37:56.371Z,97792.09
2022-11-17T08:40:24.741Z,97792.63
2022-11-17T08:43:00.628Z,97787.09
2022-11-17T08:45:29.837Z,97799.00
2022-11-17T08:47:58.605Z,97791.84
2022-11-17T08:50:28.570Z,97792.09
2022-11-17T08:52:57.010Z,97774.63
2022-11-17T08:55:26.266Z,97788.59
2022-11-17T08:57:55.052Z,97793.91
2022-11-17T09:00:23.748Z,97788.28
2022-11-17T09:02:52.185Z,97796.25
2022-11-17T09:05:21.024Z,97790.94
2022-11-17T09:07:50.946Z,97800.78
2022-11-17T09:10:19.685Z,97815.94
2022-11-17T09:12:48.162Z,97817.31
2022-11-17T09:15:16.679Z,97818.88
2022-11-17T09:17:47.799Z,97818.38
2022-11-17T09:20:17.115Z,97823.97
2022-11-17T09:22:45.545Z,97825.38
2022-11-17T09:25:15.772Z,97820.25
2022-11-17T09:27:44.211Z,97817.41
2022-11-17T09:30:14.429Z,97823.69
2022-11-17T09:32:42.785Z,97832.66
2022-11-17T09:35:11.384Z,97838.75
2022-11-17T09:37:39.794Z,97845.16
2022-11-17T09:40:12.276Z,97841.78
2022-11-17T09:42:42.764Z,97852.31
2022-11-17T09:45:18.260Z,97862.44
2022-11-17T09:48:07.072Z,97867.44
2022-11-17T09:50:42.786Z,97875.41
2022-11-17T09:53:21.910Z,97870.91
2022-11-17T09:55:55.177Z,97872.75
2022-11-17T09:58:35.629Z,97886.03
2022-11-17T10:01:04.554Z,97870.59
2022-11-17T10:03:38.759Z,97883.09
2022-11-17T10:06:17.496Z,97882.78
2022-11-17T10:09:00.256Z,97882.31
2022-11-17T10:11:35.141Z,97875.63
2022-11-17T10:14:14.062Z,97887.31
2022-11-17T10:16:45.712Z,97887.63
2022-11-17T10:19:19.013Z,97882.38
2022-11-17T10:21:51.557Z,97886.84
2022-11-17T10:24:37.795Z,97881.03
2022-11-17T10:27:19.858Z,97891.34
2022-11-17T10:30:04.881Z,97877.59
2022-11-17T10:32:36.487Z,97880.44
2022-11-17T10:35:20.385Z,97875.63
2022-11-17T10:37:56.651Z,97869.53
2022-11-17T10:40:27.778Z,97873.16
2022-11-17T10:43:05.866Z,97868.38
2022-11-17T10:45:35.798Z,97875.75
2022-11-17T10:48:30.468Z,97886.38
2022-11-17T10:51:01.240Z,97892.16
2022-11-17T10:53:44.530Z,97884.19
2022-11-17T10:56:18.115Z,97885.50
2022-11-17T10:59:03.536Z,97892.66
2022-11-17T11:01:36.448Z,97893.44
2022-11-17T11:04:08.072Z,97880.28
2022-11-17T11:06:37.511Z,97890.50
2022-11-17T11:09:13.223Z,97886.00
2022-11-17T11:11:45.942Z,97886.78
2022-11-17T11:14:31.667Z,97881.25
2022-11-17T11:17:02.673Z,97888.94
2022-11-17T11:19:31.137Z,97886.56
2022-11-17T11:22:37.961Z,97887.06
2022-11-17T11:25:27.823Z,97879.09
2022-11-17T11:28:16.599Z,97886.28
2022-11-17T11:30:56.263Z,97887.06
2022-11-17T11:33:36.419Z,97878.81
2022-11-17T11:36:20.092Z,97881.16
2022-11-17T11:39:01.140Z,97872.91
2022-11-17T11:41:50.454Z,97876.63
2022-11-17T11:44:42.412Z,97873.19
2022-11-17T11:47:28.115Z,97879.28
2022-11-17T11:50:05.273Z,97887.25
2022-11-17T11:52:37.693Z,97884.59
2022-11-17T11:55:18.781Z,97880.06
2022-11-17T11:57:55.242Z,97870.53
2022-11-17T12:00:24.247Z,97884.53
2022-11-17T12:03:01.444Z,97882.66
2022-11-17T12:05:45.257Z,97884.78
2022-11-17T12:08:21.797Z,97887.19
2022-11-17T12:10:55.759Z,97886.88
2022-11-17T12:13:25.569Z,97871.25
2022-11-17T12:16:18.163Z,97884.22
2022-11-17T12:18:46.616Z,97883.13
2022-11-17T12:21:24.816Z,97888.16
2022-11-17T12:24:13.335Z,97890.31
2022-11-17T12:26:42.100Z,97901.94
2022-11-17T12:29:31.972Z,97890.50
2022-11-17T12:32:02.759Z,97895.81
2022-11-17T12:34:35.426Z,97900.09
2022-11-17T12:37:32.345Z,97894.25
2022-11-17T12:40:04.195Z,97890.50
2022-11-17T12:42:33.469Z,97888.94
2022-11-17T12:45:13.330Z,97881.56
2022-11-17T12:47:46.163Z,97874.09
2022-11-17T12:50:50.916Z,97875.34
2022-11-17T12:53:51.015Z,97865.81
2022-11-17T12:56:39.584Z,97863.94
2022-11-17T12:59:32.000Z,97865.53
2022-11-17T13:02:13.825Z,97869.78
2022-11-17T13:04:49.655Z,97868.69
2022-11-17T13:07:22.456Z,97866.53
2022-11-17T13:09:56.889Z,97869.97
2022-11-17T13:12:28.424Z,97872.63
2022-11-17T13:14:58.538Z,97880.28
2022-11-17T13:17:31.899Z,97893.31
2022-11-17T13:20:04.092Z,97896.44
2022-11-17T13:22:35.333Z,97901.28
2022-11-17T13:25:23.241Z,97911.31
2022-11-17T13:27:57.121Z,97917.88
2022-11-17T13:30:30.262Z,97912.56
2022-11-17T13:33:03.072Z,97921.63
2022-11-17T13:35:33.823Z,97930.09
2022-11-17T13:38:07.436Z,97930.09
2022-11-17T13:40:38.249Z,97920.53
2022-11-17T13:43:11.427Z,97923.72
2022-11-17T13:45:40.458Z,97923.50
2022-11-17T13:48:31.628Z,97943.22
2022-11-17T13:51:19.689Z,97959.63
2022-11-17T13:53:51.937Z,97961.50
2022-11-17T13:56:28.591Z,97937.38
2022-11-17T13:58:57.698Z,97900.38
2022-11-17T14:01:29.612Z,97898.81
2022-11-17T14:04:20.264Z,97901.28
2022-11-17T14:06:58.187Z,97909.81
2022-11-17T14:09:28.518Z,97915.72
2022-11-17T14:11:59.022Z,97938.84
2022-11-17T14:14:35.708Z,97948.50
2022-11-17T14:17:13.817Z,97957.50
2022-11-17T14:19:42.349Z,97966.31
2022-11-17T14:22:31.270Z,97983.66
2022-11-17T14:25:00.830Z,97991.72
2022-11-17T14:27:41.736Z,97994.19
2022-11-17T14:30:15.732Z,97986.00
2022-11-17T14:32:44.137Z,97997.41
2022-11-17T14:35:15.385Z,98011.47
2022-11-17T14:37:44.691Z,98008.34
2022-11-17T14:40:17.979Z,98007.25
2022-11-17T14:42:48.004Z,98000.63
2022-11-17T14:45:17.869Z,97981.84
2022-11-17T14:47:46.404Z,97993.28
2022-11-17T14:50:17.899Z,97989.81
2022-11-17T14:52:47.196Z,97995.94
2022-11-17T14:55:16.142Z,97984.22
2022-11-17T14:57:45.027Z,97989.81
2022-11-17T15:00:20.473Z,97991.69
2022-11-17T15:02:50.095Z,97986.66
2022-11-17T15:05:18.699Z,97981.34
2022-11-17T15:07:49.697Z,97964.66
2022-11-17T15:10:18.800Z,97981.94
2022-11-17T15:12:47.421Z,97973.97
2022-11-17T15:15:18.080Z,97986.94
2022-11-17T15:17:46.554Z,97982.44
2022-11-17T15:20:15.002Z,97975.25
2022-11-17T15:22:43.444Z,97961.78
2022-11-17T15:25:12.240Z,97963.66
2022-11-17T15:27:40.650Z,97954.09
2022-11-17T15:30:10.414Z,97954.38
2022-11-17T15:32:43.209Z,97961.84
2022-11-17T15:35:12.270Z,97954.19
2022-11-17T15:37:41.051Z,97951.78
2022-11-17T15:40:15.106Z,97965.66
2022-11-17T15:42:46.424Z,97973.63
2022-11-17T15:45:14.940Z,97982.88
2022-11-17T15:47:46.580Z,97977.31
2022-11-17T15:50:15.199Z,97983.16
2022-11-17T15:53:02.945Z,97986.09
2022-11-17T15:55:37.355Z,97981.84
2022-11-17T15:58:15.435Z,97975.75
2022-11-17T16:00:43.855Z,97965.44
2022-11-17T16:03:13.652Z,97983.19
2022-11-17T16:05:42.096Z,97993.34
2022-11-17T16:08:10.459Z,97994.41
2022-11-17T16:10:39.326Z,97992.81
2022-11-17T16:13:07.756Z,98004.53
2022-11-17T16:15:36.118Z,97999.22
2022-11-17T16:18:04.550Z,98004.03
2022-11-17T16:20:34.355Z,97990.25
2022-11-17T16:23:02.874Z,98000.34
2022-11-17T16:25:31.304Z,97996.91
2022-11-17T16:27:59.958Z,98000.34
2022-11-17T16:30:34.230Z,97994.25
2022-11-17T16:33:04.036Z,98000.66
2022-11-17T16:35:33.831Z,97990.03
2022-11-17T16:38:02.201Z,97988.16
2022-11-17T16:40:31.351Z,97987.69
2022-11-17T16:42:59.876Z,97980.00
2022-11-17T16:45:28.334Z,97986.38
2022-11-17T16:47:56.760Z,97986.66
2022-11-17T16:50:25.172Z,97981.66
2022-11-17T16:52:54.941Z,97986.16
2022-11-17T16:55:23.368Z,97980.34
2022-11-17T16:57:51.920Z,97979.06
2022-11-17T17:00:21.289Z,97975.59
2022-11-17T17:02:50.811Z,97980.44
2022-11-17T17:05:19.847Z,97965.59
2022-11-17T17:07:48.218Z,97969.31
2022-11-17T17:10:18.206Z,97973.81
2022-11-17T17:12:46.703Z,97974.59
2022-11-17T17:15:15.146Z,97970.38
2022-11-17T17:17:43.498Z,97980.47
2022-11-17T17:20:12.923Z,97982.34
2022-11-17T17:22:41.290Z,97965.94
2022-11-17T17:25:10.995Z,97955.34
2022-11-17T17:27:40.726Z,97964.88
2022-11-17T17:30:10.879Z,97966.72
2022-11-17T17:32:39.193Z,97972.03
2022-11-17T17:35:08.848Z,97985.59
2022-11-17T17:37:37.182Z,97995.13
2022-11-17T17:40:06.927Z,97984.78
2022-11-17T17:42:35.326Z,97986.38
2022-11-17T17:45:05.895Z,98001.22
2022-11-17T17:47:34.319Z,97994.63
2022-11-17T17:50:02.699Z,98011.31
2022-11-17T17:52:31.064Z,98012.13
2022-11-17T17:54:59.480Z,98006.31
2022-11-17T17:57:32.737Z,98011.63
2022-11-17T18:00:02.364Z,98015.34
2022-11-17T18:02:35.063Z,98024.88
2022-11-17T18:05:04.897Z,98019.59
2022-11-17T18:07:33.348Z,98018.78
2022-11-17T18:10:01.760Z,98006.63
2022-11-17T18:12:30.144Z,98014.56
2022-11-17T18:14:58.531Z,98012.69
2022-11-17T18:17:26.946Z,98015.34
2022-11-17T18:19:57.054Z,98026.25
2022-11-17T18:22:25.498Z,98026.25
2022-11-17T18:24:58.170Z,98025.19
2022-11-17T18:27:26.905Z,98016.41
2022-11-17T18:29:55.634Z,98006.09
2022-11-17T18:32:24.038Z,98014.06
2022-11-17T18:34:52.403Z,98018.56
2022-11-17T18:37:22.238Z,98010.09
2022-11-17T18:39:50.539Z,98024.16
2022-11-17T18:42:18.986Z,97997.63
2022-11-17T18:44:47.398Z,98013.84
2022-11-17T18:47:16.211Z,98008.00
2022-11-17T18:49:44.585Z,98005.66
2022-11-17T18:52:13.345Z,98004.88
2022-11-17T18:54:43.062Z,98006.75
2022-11-17T18:57:11.409Z,98016.56
2022-11-17T18:59:39.788Z,98000.66
2022-11-17T19:02:09.878Z,97999.25
2022-11-17T19:04:38.523Z,97996.13
2022-11-17T19:07:07.137Z,97998.00
2022-11-17T19:09:35.602Z,98000.34
2022-11-17T19:12:05.934Z,97995.34
2022-11-17T19:14:34.299Z,98000.66
2022-11-17T19:17:02.684Z,97998.78
2022-11-17T19:19:31.119Z,97998.78
2022-11-17T19:21:59.537Z,97993.47
2022-11-17T19:24:27.878Z,97997.69
2022-11-17T19:26:56.313Z,98010.19
2022-11-17T19:29:26.056Z,98005.66
2022-11-17T19:31:54.703Z,98010.97
2022-11-17T19:34:23.044Z,98007.53
2022-11-17T19:36:51.403Z,98012.03
2022-11-17T19:39:20.256Z,98009.38
2022-11-17T19:41:48.907Z,98017.34
2022-11-17T19:44:17.352Z,98005.94
2022-11-17T19:46:47.117Z,98014.69
2022-11-17T19:49:15.788Z,98013.63
2022-11-17T19:51:44.379Z,98020.00
2022-11-17T19:54:14.784Z,98015.75
2022-11-17T19:56:43.174Z,98020.28
2022-11-17T19:59:37.127Z,98018.19
2022-11-17T20:02:06.880Z,98040.22
2022-11-17T20:04:35.265Z,98050.81
2022-11-17T20:07:03.691Z,98042.56
2022-11-17T20:09:32.115Z,98043.66
2022-11-17T20:12:00.487Z,98041.78
2022-11-17T20:14:30.544Z,98032.25
2022-11-17T20:16:59.019Z,98040.72
2022-11-17T20:19:29.052Z,98023.22
2022-11-17T20:21:57.433Z,98035.41
2022-11-17T20:24:25.844Z,98024.00
2022-11-17T20:26:54.162Z,98017.13
2022-11-17T20:29:22.546Z,98019.25
2022-11-17T20:31:50.918Z,98030.94
2022-11-17T20:34:19.661Z,98037.03
2022-11-17T20:36:49.438Z,98041.56
2022-11-17T20:39:18.123Z,98036.53
2022-11-17T20:41:46.741Z,98045.31
2022-11-17T20:44:24.762Z,98049.78
2022-11-17T20:46:54.906Z,98050.88
2022-11-17T20:49:23.833Z,98046.66
2022-11-17T20:51:53.603Z,98051.94
2022-11-17T20:54:22.006Z,98046.13
2022-11-17T20:56:50.423Z,98046.41
2022-11-17T20:59:20.434Z,98040.81
2022-11-17T21:01:50.468Z,98053.84
2022-11-17T21:04:19.099Z,98053.59
2022-11-17T21:06:47.494Z,98058.38
2022-11-17T21:09:17.403Z,98055.47
2022-11-17T21:11:58.247Z,98059.69
2022-11-17T21:14:27.877Z,98059.94
2022-11-17T21:16:57.844Z,98061.81
2022-11-17T21:19:26.329Z,98068.19
2022-11-17T21:21:55.568Z,98080.69
2022-11-17T21:24:26.011Z,98082.53
2022-11-17T21:26:54.647Z,98084.41
2022-11-17T21:29:23.597Z,98085.97
2022-11-17T21:31:51.950Z,98096.59
2022-11-17T21:34:20.480Z,98095.81
2022-11-17T21:36:48.859Z,98095.00
2022-11-17T21:39:19.701Z,98112.50
2022-11-17T21:41:49.613Z,98111.72
2022-11-17T21:44:18.308Z,98117.03
2022-11-17T21:46:46.716Z,98118.59
2022-11-17T21:49:15.472Z,98119.38
2022-11-17T21:51:45.475Z,98121.53
2022-11-17T21:54:13.839Z,98110.94
2022-11-17T21:56:42.221Z,98103.25
2022-11-17T21:59:16.413Z,98113.06
2022-11-17T22:01:45.294Z,98118.38
2022-11-17T22:04:15.748Z,98114.94
2022-11-17T22:06:47.551Z,98124.75
2022-11-17T22:09:16.374Z,98122.34
2022-11-17T22:11:44.958Z,98118.38
2022-11-17T22:14:16.826Z,98120.22
2022-11-17T22:16:47.109Z,98123.19
2022-11-17T22:19:17.717Z,98127.66
2022-11-17T22:21:48.591Z,98125.31
2022-11-17T22:24:17.171Z,98125.31
2022-11-17T22:26:46.423Z,98124.53
2022-11-17T22:29:19.383Z,98131.69
2022-11-17T22:31:49.799Z,98141.50
2022-11-17T22:34:19.669Z,98127.44
2022-11-17T22:36:48.210Z,98116.03
2022-11-17T22:39:17.915Z,98126.38
2022-11-17T22:41:46.848Z,98129.03
2022-11-17T22:44:17.803Z,98127.97
2022-11-17T22:46:47.705Z,98125.00
2022-11-17T22:49:16.382Z,98121.56
2022-11-17T22:52:02.634Z,98128.19
2022-11-17T22:54:31.717Z,98119.22
2022-11-17T22:57:00.777Z,98110.69
2022-11-17T22:59:31.626Z,98106.19
2022-11-17T23:02:00.130Z,98110.41
2022-11-17T23:04:28.723Z,98118.38
2022-11-17T23:06:57.257Z,98120.75
2022-11-17T23:09:25.694Z,98101.66
2022-11-17T23:11:54.117Z,98117.03
2022-11-17T23:14:22.528Z,98110.69
2022-11-17T23:16:52.300Z,98111.97
2022-11-17T23:19:20.888Z,98121.81
2022-11-17T23:21:49.549Z,98130.53
2022-11-17T23:24:18.023Z,98133.50
2022-11-17T23:26:46.461Z,98148.63
2022-11-17T23:29:15.192Z,98130.31
2022-11-17T23:31:43.829Z,98125.00
2022-11-17T23:34:13.596Z,98118.13
2022-11-17T23:36:42.041Z,98127.16
2022-11-17T23:39:10.656Z,98124.78
2022-11-17T23:41:39.112Z,98143.34
2022-11-17T23:44:07.744Z,98141.78
2022-11-17T23:46:36.149Z,98148.16
2022-11-17T23:49:05.096Z,98148.41
2022-11-17T23:51:34.949Z,98142.31
2022-11-17T23:54:03.909Z,98129.84
2022-11-17T23:56:34.821Z,98118.47
2022-11-17T23:59:03.575Z,98134.38
